createdAt,value
2024-02-21T00:00:39.340Z,101375.16
2024-02-21T00:03:05.867Z,101377.22
2024-02-21T00:05:32.521Z,101374.00
2024-02-21T00:08:01.139Z,101373.53
2024-02-21T00:10:27.678Z,101370.47
2024-02-21T00:12:54.122Z,101364.22
2024-02-21T00:15:20.599Z,101367.28
2024-02-21T00:17:47.052Z,101360.81
2024-02-21T00:20:13.702Z,101367.53
2024-02-21T00:22:40.142Z,101357.59
2024-02-21T00:25:07.225Z,101360.66
2024-02-21T00:27:33.724Z,101350.00
2024-02-21T00:30:00.305Z,101356.13
2024-02-21T00:32:26.889Z,101354.84
2024-02-21T00:34:53.417Z,101340.84
2024-02-21T00:37:19.894Z,101349.69
2024-02-21T00:39:46.372Z,101343.41
2024-02-21T00:42:12.874Z,101340.31
2024-02-21T00:44:39.365Z,101346.28
2024-02-21T00:47:05.949Z,101336.78
2024-02-21T00:49:32.444Z,101335.59
2024-02-21T00:51:58.941Z,101338.22
2024-02-21T00:54:26.018Z,101334.00
2024-02-21T00:56:54.742Z,101328.38
2024-02-21T00:59:21.232Z,101323.97
2024-02-21T01:01:47.687Z,101326.25
2024-02-21T01:04:14.340Z,101329.34
2024-02-21T01:06:43.900Z,101320.63
2024-02-21T01:09:10.508Z,101315.03
2024-02-21T01:11:37.167Z,101317.91
2024-02-21T01:14:03.891Z,101316.09
2024-02-21T01:16:30.412Z,101312.09
2024-02-21T01:18:56.947Z,101306.75
2024-02-21T01:21:23.385Z,101305.75
2024-02-21T01:23:49.771Z,101300.47
2024-02-21T01:26:16.604Z,101302.53
2024-02-21T01:28:43.286Z,101299.28
2024-02-21T01:31:09.731Z,101300.75
2024-02-21T01:33:36.204Z,101293.56
2024-02-21T01:36:09.198Z,101298.03
2024-02-21T01:38:36.045Z,101290.06
2024-02-21T01:41:02.757Z,101286.22
2024-02-21T01:43:29.261Z,101285.25
2024-02-21T01:45:58.889Z,101280.25
2024-02-21T01:48:26.393Z,101281.50
2024-02-21T01:50:55.771Z,101285.94
2024-02-21T01:53:24.620Z,101279.38
2024-02-21T01:55:51.215Z,101273.78
2024-02-21T01:58:19.660Z,101273.63
2024-02-21T02:00:48.931Z,101262.69
2024-02-21T02:03:17.980Z,101258.25
2024-02-21T02:05:48.748Z,101259.75
2024-02-21T02:08:16.694Z,101253.47
2024-02-21T02:10:43.857Z,101248.59
2024-02-21T02:13:10.759Z,101252.44
2024-02-21T02:15:45.205Z,101245.44
2024-02-21T02:18:13.298Z,101230.16
2024-02-21T02:20:40.821Z,101236.34
2024-02-21T02:23:23.179Z,101223.28
2024-02-21T02:25:52.371Z,101222.97
2024-02-21T02:28:19.271Z,101222.47
2024-02-21T02:30:46.063Z,101214.78
2024-02-21T02:33:12.686Z,101214.03
2024-02-21T02:35:39.198Z,101207.53
2024-02-21T02:38:05.774Z,101198.19
2024-02-21T02:40:34.205Z,101201.88
2024-02-21T02:43:00.834Z,101200.72
2024-02-21T02:45:27.769Z,101189.78
2024-02-21T02:47:55.550Z,101200.53
2024-02-21T02:50:22.096Z,101194.78
2024-02-21T02:52:48.604Z,101201.72
2024-02-21T02:55:15.482Z,101207.88
2024-02-21T02:57:42.883Z,101196.25
2024-02-21T03:00:11.848Z,101187.56
2024-02-21T03:02:40.631Z,101184.31
2024-02-21T03:05:21.739Z,101177.56
2024-02-21T03:07:50.075Z,101175.63
2024-02-21T03:10:20.015Z,101162.69
2024-02-21T03:12:47.038Z,101161.25
2024-02-21T03:15:15.001Z,101161.59
2024-02-21T03:17:42.210Z,101155.44
2024-02-21T03:20:12.248Z,101148.25
2024-02-21T03:22:40.410Z,101143.97
2024-02-21T03:25:08.065Z,101144.50
2024-02-21T03:27:34.767Z,101148.38
2024-02-21T03:30:01.326Z,101130.09
2024-02-21T03:32:29.505Z,101134.75
2024-02-21T03:34:56.121Z,101137.75
2024-02-21T03:37:22.692Z,101132.69
2024-02-21T03:39:49.315Z,101132.50
2024-02-21T03:42:15.881Z,101127.03
2024-02-21T03:44:42.335Z,101127.69
2024-02-21T03:47:11.613Z,101128.34
2024-02-21T03:49:38.847Z,101119.63
2024-02-21T03:52:05.708Z,101123.03
2024-02-21T03:54:32.137Z,101119.63
2024-02-21T03:56:58.636Z,101109.91
2024-02-21T03:59:25.921Z,101097.13
2024-02-21T04:01:53.859Z,101098.44
2024-02-21T04:04:21.645Z,101081.19
2024-02-21T04:06:52.149Z,101086.47
2024-02-21T04:09:19.111Z,101081.53
2024-02-21T04:11:45.957Z,101084.53
2024-02-21T04:14:12.960Z,101074.34
2024-02-21T04:16:40.646Z,101070.94
2024-02-21T04:19:07.630Z,101059.19
2024-02-21T04:21:34.274Z,101054.63
2024-02-21T04:24:01.066Z,101069.47
2024-02-21T04:26:27.493Z,101065.72
2024-02-21T04:28:54.095Z,101071.88
2024-02-21T04:31:20.673Z,101077.53
2024-02-21T04:33:47.436Z,101073.22
2024-02-21T04:36:13.972Z,101072.44
2024-02-21T04:38:41.782Z,101060.50
2024-02-21T04:41:09.114Z,101051.81
2024-02-21T04:43:35.848Z,101055.56
2024-02-21T04:46:02.638Z,101051.97
2024-02-21T04:48:29.085Z,101048.47
2024-02-21T04:50:55.662Z,101046.63
2024-02-21T04:53:22.238Z,101049.81
2024-02-21T04:55:48.721Z,101053.81
2024-02-21T04:58:15.161Z,101030.84
2024-02-21T05:00:41.660Z,101027.59
2024-02-21T05:03:08.293Z,101030.75
2024-02-21T05:05:34.787Z,101031.09
2024-02-21T05:08:01.402Z,101027.59
2024-02-21T05:10:28.147Z,101039.31
2024-02-21T05:12:54.564Z,101037.16
2024-02-21T05:15:21.029Z,101035.44
2024-02-21T05:17:47.559Z,101028.03
2024-02-21T05:20:14.167Z,101025.81
2024-02-21T05:22:40.666Z,101021.94
2024-02-21T05:25:07.891Z,101017.34
2024-02-21T05:27:34.453Z,101003.19
2024-02-21T05:30:00.862Z,101001.25
2024-02-21T05:32:27.825Z,100994.88
2024-02-21T05:34:54.461Z,100994.88
2024-02-21T05:37:21.095Z,100993.84
2024-02-21T05:39:47.601Z,100996.59
2024-02-21T05:42:14.019Z,100994.06
2024-02-21T05:44:40.472Z,100997.47
2024-02-21T05:47:11.054Z,101001.13
2024-02-21T05:49:38.132Z,101003.31
2024-02-21T05:52:07.066Z,101004.69
2024-02-21T05:54:33.798Z,100985.66
2024-02-21T05:57:00.429Z,100992.28
2024-02-21T05:59:26.937Z,100994.41
2024-02-21T06:01:59.529Z,101005.97
2024-02-21T06:04:26.286Z,101002.41
2024-02-21T06:06:52.841Z,101012.59
2024-02-21T06:09:19.341Z,101009.25
2024-02-21T06:11:47.517Z,101004.72
2024-02-21T06:14:14.164Z,101015.31
2024-02-21T06:16:40.703Z,101008.13
2024-02-21T06:19:10.065Z,101012.81
2024-02-21T06:21:37.678Z,101012.13
2024-02-21T06:24:05.032Z,101016.69
2024-02-21T06:26:31.494Z,101017.81
2024-02-21T06:28:58.495Z,101015.75
2024-02-21T06:31:25.149Z,101013.84
2024-02-21T06:33:51.810Z,101017.13
2024-02-21T06:36:18.289Z,101007.66
2024-02-21T06:38:44.894Z,101007.34
2024-02-21T06:41:19.768Z,101015.41
2024-02-21T06:43:50.125Z,101004.34
2024-02-21T06:46:30.364Z,101008.91
2024-02-21T06:48:58.366Z,101006.63
2024-02-21T06:51:26.076Z,101011.66
2024-02-21T06:53:52.684Z,101021.09
2024-02-21T06:56:19.243Z,101016.19
2024-02-21T06:58:46.021Z,101010.16
2024-02-21T07:01:12.932Z,101003.44
2024-02-21T07:03:39.400Z,100999.19
2024-02-21T07:06:06.094Z,100997.97
2024-02-21T07:08:32.662Z,101008.09
2024-02-21T07:10:59.238Z,101007.75
2024-02-21T07:13:25.807Z,101012.56
2024-02-21T07:15:52.216Z,101007.06
2024-02-21T07:18:18.839Z,101009.25
2024-02-21T07:20:45.339Z,101009.25
2024-02-21T07:23:11.825Z,101010.38
2024-02-21T07:25:38.437Z,101015.63
2024-02-21T07:28:05.447Z,101016.56
2024-02-21T07:30:32.099Z,101018.28
2024-02-21T07:32:58.540Z,101013.03
2024-02-21T07:35:25.124Z,101013.69
2024-02-21T07:37:51.581Z,101021.22
2024-02-21T07:40:18.557Z,101015.84
2024-02-21T07:42:48.535Z,101020.06
2024-02-21T07:45:19.359Z,101019.25
2024-02-21T07:47:45.812Z,101017.81
2024-02-21T07:50:12.405Z,101024.88
2024-02-21T07:52:38.972Z,101007.53
2024-02-21T07:55:05.795Z,101014.03
2024-02-21T07:57:32.234Z,101005.13
2024-02-21T07:59:58.782Z,101009.38
2024-02-21T08:02:25.225Z,101009.03
2024-02-21T08:04:51.710Z,100997.63
2024-02-21T08:07:18.238Z,100994.88
2024-02-21T08:09:44.720Z,101004.34
2024-02-21T08:12:11.256Z,101000.81
2024-02-21T08:14:37.804Z,101004.00
2024-02-21T08:17:05.121Z,101007.53
2024-02-21T08:19:32.098Z,101009.72
2024-02-21T08:21:58.590Z,101014.53
2024-02-21T08:24:25.023Z,101012.72
2024-02-21T08:26:51.683Z,101015.25
2024-02-21T08:29:18.132Z,101012.81
2024-02-21T08:31:44.652Z,101002.19
2024-02-21T08:34:11.206Z,101007.03
2024-02-21T08:36:37.669Z,101009.84
2024-02-21T08:39:04.826Z,101003.59
2024-02-21T08:41:48.158Z,101003.94
2024-02-21T08:44:24.681Z,100990.47
2024-02-21T08:46:51.220Z,100996.16
2024-02-21T08:49:17.779Z,100992.72
2024-02-21T08:51:44.927Z,100988.75
2024-02-21T08:54:11.424Z,100993.53
2024-02-21T08:56:37.966Z,100992.41
2024-02-21T08:59:05.298Z,100989.56
2024-02-21T09:01:31.992Z,100998.56
2024-02-21T09:03:59.305Z,100990.00
2024-02-21T09:06:25.779Z,100982.94
2024-02-21T09:08:52.242Z,100984.06
2024-02-21T09:11:18.842Z,100978.50
2024-02-21T09:13:45.472Z,100983.84
2024-02-21T09:16:12.035Z,100981.34
2024-02-21T09:18:38.471Z,100980.88
2024-02-21T09:21:05.450Z,100980.19
2024-02-21T09:23:32.841Z,100986.13
2024-02-21T09:26:01.873Z,100988.06
2024-02-21T09:28:28.675Z,100999.13
2024-02-21T09:30:55.285Z,100979.72
2024-02-21T09:33:30.192Z,100982.25
2024-02-21T09:35:58.913Z,100973.69
2024-02-21T09:38:25.396Z,100974.84
2024-02-21T09:41:03.872Z,100969.69
2024-02-21T09:43:30.563Z,100971.63
2024-02-21T09:45:59.432Z,100967.16
2024-02-21T09:49:00.520Z,100973.56
2024-02-21T09:51:31.625Z,100969.00
2024-02-21T09:54:07.326Z,100964.88
2024-02-21T09:56:41.776Z,100972.63
2024-02-21T09:59:08.924Z,100969.78
2024-02-21T10:01:35.884Z,100976.53
2024-02-21T10:04:04.258Z,100984.41
2024-02-21T10:06:31.021Z,100985.06
2024-02-21T10:08:57.527Z,100989.09
2024-02-21T10:11:25.514Z,100993.19
2024-02-21T10:13:52.495Z,100999.34
2024-02-21T10:16:19.125Z,100999.47
2024-02-21T10:18:45.629Z,100995.03
2024-02-21T10:21:12.021Z,101004.50
2024-02-21T10:23:45.805Z,100993.19
2024-02-21T10:26:12.872Z,100987.84
2024-02-21T10:28:46.954Z,100972.66
2024-02-21T10:31:28.413Z,100979.63
2024-02-21T10:33:59.853Z,100975.72
2024-02-21T10:36:26.988Z,100970.13
2024-02-21T10:38:55.892Z,100979.03
2024-02-21T10:41:23.579Z,100974.72
2024-02-21T10:43:56.119Z,100967.75
2024-02-21T10:46:25.456Z,100969.56
2024-02-21T10:49:08.503Z,100965.34
2024-02-21T10:51:36.542Z,100961.78
2024-02-21T10:54:25.845Z,100960.28
2024-02-21T10:56:53.013Z,100966.59
2024-02-21T10:59:20.623Z,100955.03
2024-02-21T11:01:47.216Z,100957.06
2024-02-21T11:04:14.368Z,100961.63
2024-02-21T11:06:42.752Z,100947.16
2024-02-21T11:09:11.254Z,100943.59
2024-02-21T11:11:47.061Z,100937.88
2024-02-21T11:14:20.987Z,100928.63
2024-02-21T11:16:48.426Z,100930.25
2024-02-21T11:19:23.678Z,100928.84
2024-02-21T11:21:51.097Z,100925.53
2024-02-21T11:24:34.212Z,100921.06
2024-02-21T11:27:11.138Z,100917.88
2024-02-21T11:29:43.485Z,100910.34
2024-02-21T11:32:16.085Z,100901.63
2024-02-21T11:34:53.554Z,100912.72
2024-02-21T11:37:20.101Z,100908.84
2024-02-21T11:39:46.803Z,100902.09
2024-02-21T11:42:13.842Z,100898.13
2024-02-21T11:44:40.981Z,100896.97
2024-02-21T11:47:08.613Z,100894.88
2024-02-21T11:49:47.303Z,100886.09
2024-02-21T11:52:16.814Z,100880.63
2024-02-21T11:54:44.017Z,100872.03
2024-02-21T11:57:12.496Z,100874.09
2024-02-21T11:59:41.425Z,100873.75
2024-02-21T12:02:08.776Z,100872.63
2024-02-21T12:04:35.492Z,100870.00
2024-02-21T12:07:04.897Z,100861.53
2024-02-21T12:09:31.689Z,100863.25
2024-02-21T12:12:04.203Z,100861.53
2024-02-21T12:14:31.740Z,100864.41
2024-02-21T12:16:59.551Z,100867.69
2024-02-21T12:19:26.489Z,100868.38
2024-02-21T12:21:55.829Z,100868.81
2024-02-21T12:24:27.075Z,100857.97
2024-02-21T12:26:54.434Z,100859.72
2024-02-21T12:29:22.055Z,100848.16
2024-02-21T12:31:48.777Z,100853.47
2024-02-21T12:34:17.682Z,100855.84
2024-02-21T12:36:49.294Z,100853.56
2024-02-21T12:39:16.198Z,100853.41
2024-02-21T12:41:45.244Z,100846.75
2024-02-21T12:44:12.476Z,100845.78
2024-02-21T12:46:40.933Z,100837.34
2024-02-21T12:49:10.231Z,100842.06
2024-02-21T12:51:37.236Z,100839.50
2024-02-21T12:54:06.660Z,100835.78
2024-02-21T12:56:33.128Z,100836.47
2024-02-21T12:58:59.577Z,100837.97
2024-02-21T13:01:27.134Z,100823.38
2024-02-21T13:03:55.018Z,100824.50
2024-02-21T13:06:21.551Z,100821.44
2024-02-21T13:08:48.087Z,100814.09
2024-02-21T13:11:14.647Z,100821.25
2024-02-21T13:13:41.216Z,100813.13
2024-02-21T13:16:08.230Z,100813.94
2024-02-21T13:18:36.205Z,100817.44
2024-02-21T13:21:03.502Z,100805.50
2024-02-21T13:23:29.933Z,100803.31
2024-02-21T13:25:56.472Z,100800.22
2024-02-21T13:28:22.974Z,100804.09
2024-02-21T13:30:49.513Z,100800.94
2024-02-21T13:33:16.099Z,100797.47
2024-02-21T13:35:42.705Z,100791.88
2024-02-21T13:38:10.998Z,100791.09
2024-02-21T13:40:38.358Z,100789.97
2024-02-21T13:43:04.790Z,100789.00
2024-02-21T13:45:31.746Z,100787.63
2024-02-21T13:48:00.014Z,100788.88
2024-02-21T13:50:31.719Z,100788.00
2024-02-21T13:52:58.122Z,100784.63
2024-02-21T13:55:27.247Z,100787.91
2024-02-21T13:57:53.925Z,100788.69
2024-02-21T14:00:21.188Z,100778.53
2024-02-21T14:02:47.901Z,100772.78
2024-02-21T14:05:15.744Z,100777.72
2024-02-21T14:07:43.103Z,100770.41
2024-02-21T14:10:10.714Z,100766.13
2024-02-21T14:12:37.367Z,100766.13
2024-02-21T14:15:03.879Z,100774.00
2024-02-21T14:17:32.328Z,100763.31
2024-02-21T14:19:58.769Z,100767.38
2024-02-21T14:22:25.407Z,100761.63
2024-02-21T14:24:51.954Z,100763.22
2024-02-21T14:27:18.470Z,100755.25
2024-02-21T14:29:44.984Z,100752.06
2024-02-21T14:32:14.035Z,100745.44
2024-02-21T14:34:40.583Z,100751.28
2024-02-21T14:37:07.065Z,100734.91
2024-02-21T14:39:35.913Z,100733.94
2024-02-21T14:42:02.415Z,100723.84
2024-02-21T14:44:28.803Z,100726.59
2024-02-21T14:46:55.319Z,100715.25
2024-02-21T14:49:22.276Z,100711.63
2024-02-21T14:51:48.906Z,100706.13
2024-02-21T14:54:15.489Z,100703.13
2024-02-21T14:56:41.968Z,100693.66
2024-02-21T14:59:14.951Z,100685.09
2024-02-21T15:01:45.120Z,100691.28
2024-02-21T15:04:11.696Z,100680.81
2024-02-21T15:06:38.697Z,100674.09
2024-02-21T15:09:07.042Z,100668.63
2024-02-21T15:11:33.673Z,100669.06
2024-02-21T15:14:00.286Z,100668.50
2024-02-21T15:16:26.818Z,100662.41
2024-02-21T15:18:53.384Z,100662.88
2024-02-21T15:21:19.997Z,100659.50
2024-02-21T15:23:46.464Z,100652.03
2024-02-21T15:26:14.795Z,100642.31
2024-02-21T15:28:41.340Z,100642.22
2024-02-21T15:31:08.036Z,100639.19
2024-02-21T15:33:36.980Z,100632.91
2024-02-21T15:36:07.984Z,100623.88
2024-02-21T15:38:34.472Z,100622.00
2024-02-21T15:41:00.906Z,100612.84
2024-02-21T15:43:28.462Z,100605.97
2024-02-21T15:45:55.629Z,100604.44
2024-02-21T15:48:26.047Z,100619.97
2024-02-21T15:50:52.886Z,100612.59
2024-02-21T15:53:19.390Z,100612.75
2024-02-21T15:55:47.099Z,100611.81
2024-02-21T15:58:14.331Z,100598.88
2024-02-21T16:00:40.802Z,100592.53
2024-02-21T16:03:07.587Z,100596.34
2024-02-21T16:05:34.085Z,100595.53
2024-02-21T16:08:01.501Z,100588.03
2024-02-21T16:10:28.026Z,100585.28
2024-02-21T16:12:54.438Z,100576.19
2024-02-21T16:15:20.895Z,100572.66
2024-02-21T16:17:48.340Z,100577.88
2024-02-21T16:20:16.472Z,100576.59
2024-02-21T16:22:43.281Z,100573.75
2024-02-21T16:25:10.169Z,100565.31
2024-02-21T16:27:37.050Z,100564.81
2024-02-21T16:30:07.045Z,100562.34
2024-02-21T16:32:35.867Z,100562.25
2024-02-21T16:35:02.557Z,100557.84
2024-02-21T16:37:29.233Z,100554.50
2024-02-21T16:39:55.698Z,100555.53
2024-02-21T16:42:22.148Z,100555.75
2024-02-21T16:44:49.567Z,100552.47
2024-02-21T16:47:17.831Z,100555.47
2024-02-21T16:49:44.319Z,100548.06
2024-02-21T16:52:10.838Z,100537.28
2024-02-21T16:54:37.583Z,100540.38
2024-02-21T16:57:04.197Z,100536.84
2024-02-21T16:59:30.813Z,100526.94
2024-02-21T17:01:57.301Z,100532.06
2024-02-21T17:04:24.306Z,100530.41
2024-02-21T17:06:51.373Z,100532.31
2024-02-21T17:09:18.865Z,100529.31
2024-02-21T17:11:45.949Z,100513.41
2024-02-21T17:14:13.556Z,100504.31
2024-02-21T17:16:40.095Z,100508.91
2024-02-21T17:19:06.726Z,100500.25
2024-02-21T17:21:33.588Z,100490.72
2024-02-21T17:24:00.016Z,100502.63
2024-02-21T17:26:27.333Z,100493.47
2024-02-21T17:28:54.528Z,100491.69
2024-02-21T17:31:21.240Z,100488.75
2024-02-21T17:33:47.753Z,100481.94
2024-02-21T17:36:14.547Z,100489.13
2024-02-21T17:38:43.319Z,100485.53
2024-02-21T17:41:09.934Z,100471.63
2024-02-21T17:43:36.516Z,100464.94
2024-02-21T17:46:03.958Z,100461.66
2024-02-21T17:48:30.696Z,100453.69
2024-02-21T17:50:57.379Z,100457.13
2024-02-21T17:53:23.944Z,100447.34
2024-02-21T17:55:50.530Z,100441.66
2024-02-21T17:58:17.180Z,100430.66
2024-02-21T18:00:46.306Z,100427.38
2024-02-21T18:03:14.248Z,100418.59
2024-02-21T18:05:40.842Z,100411.13
2024-02-21T18:08:08.837Z,100412.63
2024-02-21T18:10:35.400Z,100431.28
2024-02-21T18:13:03.880Z,100438.91
2024-02-21T18:15:30.366Z,100434.41
2024-02-21T18:17:58.286Z,100428.25
2024-02-21T18:20:25.661Z,100425.97
2024-02-21T18:22:54.952Z,100417.31
2024-02-21T18:25:23.066Z,100404.00
2024-02-21T18:27:49.557Z,100398.53
2024-02-21T18:30:16.316Z,100390.66
2024-02-21T18:32:42.966Z,100379.31
2024-02-21T18:35:09.722Z,100369.16
2024-02-21T18:37:36.395Z,100360.94
2024-02-21T18:40:10.748Z,100352.38
2024-02-21T18:42:37.176Z,100343.84
2024-02-21T18:45:03.971Z,100339.00
2024-02-21T18:47:30.616Z,100327.47
2024-02-21T18:49:57.158Z,100315.81
2024-02-21T18:52:23.735Z,100303.81
2024-02-21T18:54:50.371Z,100295.69
2024-02-21T18:57:18.142Z,100271.53
2024-02-21T18:59:45.333Z,100234.78
2024-02-21T19:02:11.898Z,100263.38
2024-02-21T19:04:38.947Z,100307.22
2024-02-21T19:07:05.677Z,100329.31
2024-02-21T19:09:32.084Z,100316.34
2024-02-21T19:11:58.606Z,100313.94
2024-02-21T19:14:25.076Z,100281.03
2024-02-21T19:16:53.222Z,100268.47
2024-02-21T19:19:19.691Z,100266.56
2024-02-21T19:21:46.266Z,100236.38
2024-02-21T19:24:12.774Z,100266.91
2024-02-21T19:26:40.203Z,100245.91
2024-02-21T19:29:07.373Z,100251.75
2024-02-21T19:31:33.937Z,100256.41
2024-02-21T19:34:00.562Z,100263.63
2024-02-21T19:36:27.099Z,100255.44
2024-02-21T19:38:53.675Z,100241.31
2024-02-21T19:41:20.377Z,100229.66
2024-02-21T19:43:47.696Z,100215.50
2024-02-21T19:46:14.280Z,100207.16
2024-02-21T19:48:41.894Z,100213.34
2024-02-21T19:51:09.056Z,100219.31
2024-02-21T19:53:36.234Z,100207.97
2024-02-21T19:56:02.894Z,100204.88
2024-02-21T19:58:29.640Z,100200.09
2024-02-21T20:00:56.104Z,100199.31
2024-02-21T20:03:26.572Z,100200.44
2024-02-21T20:05:53.315Z,100183.97
2024-02-21T20:08:20.012Z,100194.47
2024-02-21T20:10:46.783Z,100181.94
2024-02-21T20:13:14.319Z,100178.78
2024-02-21T20:15:40.889Z,100172.97
2024-02-21T20:18:07.451Z,100161.66
2024-02-21T20:20:34.939Z,100165.13
2024-02-21T20:23:02.517Z,100161.22
2024-02-21T20:25:29.079Z,100155.31
2024-02-21T20:27:56.013Z,100147.44
2024-02-21T20:30:22.476Z,100138.13
2024-02-21T20:32:52.230Z,100131.13
2024-02-21T20:35:19.004Z,100125.22
2024-02-21T20:37:47.554Z,100123.72
2024-02-21T20:40:14.360Z,100117.44
2024-02-21T20:42:41.753Z,100120.91
2024-02-21T20:45:09.915Z,100121.72
2024-02-21T20:47:37.300Z,100122.84
2024-02-21T20:50:04.530Z,100116.59
2024-02-21T20:52:31.310Z,100117.00
2024-02-21T20:54:57.751Z,100112.69
2024-02-21T20:57:24.280Z,100111.25
2024-02-21T20:59:50.766Z,100106.16
2024-02-21T21:02:17.664Z,100101.75
2024-02-21T21:04:44.348Z,100107.66
2024-02-21T21:07:11.496Z,100104.13
2024-02-21T21:09:40.253Z,100097.13
2024-02-21T21:12:07.515Z,100094.13
2024-02-21T21:14:34.203Z,100091.03
2024-02-21T21:17:04.536Z,100088.38
2024-02-21T21:19:34.212Z,100085.34
2024-02-21T21:22:01.891Z,100082.19
2024-02-21T21:24:28.622Z,100083.88
2024-02-21T21:26:55.165Z,100075.69
2024-02-21T21:29:22.374Z,100069.03
2024-02-21T21:31:49.161Z,100063.56
2024-02-21T21:34:16.034Z,100061.16
2024-02-21T21:36:42.728Z,100060.03
2024-02-21T21:39:09.255Z,100063.72
2024-02-21T21:41:36.213Z,100059.75
2024-02-21T21:44:02.822Z,100059.03
2024-02-21T21:46:29.605Z,100052.78
2024-02-21T21:48:56.119Z,100057.81
2024-02-21T21:51:24.782Z,100045.69
2024-02-21T21:53:51.363Z,100044.13
2024-02-21T21:56:17.935Z,100035.91
2024-02-21T21:58:46.996Z,100033.56
2024-02-21T22:01:14.864Z,100030.53
2024-02-21T22:03:41.428Z,100027.81
2024-02-21T22:06:08.213Z,100021.59
2024-02-21T22:08:34.806Z,100022.34
2024-02-21T22:11:01.282Z,100015.75
2024-02-21T22:13:27.782Z,100007.16
2024-02-21T22:15:54.215Z,100001.63
2024-02-21T22:18:20.841Z,99995.72
2024-02-21T22:20:47.270Z,99982.84
2024-02-21T22:23:14.129Z,99980.84
2024-02-21T22:25:41.795Z,99967.59
2024-02-21T22:28:08.875Z,99960.81
2024-02-21T22:30:35.962Z,99961.16
2024-02-21T22:33:02.795Z,99946.19
2024-02-21T22:35:29.336Z,99944.25
2024-02-21T22:37:55.910Z,99952.81
2024-02-21T22:40:22.519Z,99939.19
2024-02-21T22:42:48.958Z,99940.88
2024-02-21T22:45:17.702Z,99944.03
2024-02-21T22:47:44.226Z,99940.94
2024-02-21T22:50:10.868Z,99932.31
2024-02-21T22:52:37.392Z,99932.31
2024-02-21T22:55:04.285Z,99928.03
2024-02-21T22:57:30.667Z,99929.97
2024-02-21T22:59:57.093Z,99932.72
2024-02-21T23:02:23.609Z,99929.22
2024-02-21T23:04:50.162Z,99920.94
2024-02-21T23:07:17.200Z,99919.41
2024-02-21T23:09:43.626Z,99909.25
2024-02-21T23:12:10.159Z,99897.09
2024-02-21T23:14:36.973Z,99897.09
2024-02-21T23:17:03.542Z,99891.28
2024-02-21T23:19:30.130Z,99882.63
2024-02-21T23:21:56.747Z,99877.84
2024-02-21T23:24:23.151Z,99874.69
2024-02-21T23:26:49.539Z,99865.31
2024-02-21T23:29:16.014Z,99866.91
2024-02-21T23:31:42.994Z,99860.66
2024-02-21T23:34:10.416Z,99860.75
2024-02-21T23:36:37.025Z,99847.84
2024-02-21T23:39:03.690Z,99849.44
2024-02-21T23:41:30.132Z,99840.47
2024-02-21T23:44:00.120Z,99833.91
2024-02-21T23:46:27.412Z,99836.69
2024-02-21T23:48:59.320Z,99829.72
2024-02-21T23:51:25.884Z,99819.97
2024-02-21T23:53:52.296Z,99819.66
2024-02-21T23:56:18.774Z,99816.97
2024-02-21T23:58:45.303Z,99807.91
